sensor_id;sensor_type;location;lat;lon;timestamp;P1;durP1;ratioP1;P2;durP2;ratioP2
43297;SDS011;28892;55.640;37.532;2023-08-30T00:02:24;10.65;;;9.55;;
43297;SDS011;28892;55.640;37.532;2023-08-30T00:04:49;10.05;;;8.75;;
43297;SDS011;28892;55.640;37.532;2023-08-30T00:07:15;11.23;;;9.45;;
43297;SDS011;28892;55.640;37.532;2023-08-30T00:09:41;10.48;;;9.32;;
43297;SDS011;28892;55.640;37.532;2023-08-30T00:12:08;10.13;;;9.13;;
43297;SDS011;28892;55.640;37.532;2023-08-30T00:14:34;11.90;;;9.85;;
43297;SDS011;28892;55.640;37.532;2023-08-30T00:17:00;10.77;;;9.70;;
43297;SDS011;28892;55.640;37.532;2023-08-30T00:19:26;11.32;;;10.18;;
43297;SDS011;28892;55.640;37.532;2023-08-30T00:21:51;11.40;;;10.27;;
43297;SDS011;28892;55.640;37.532;2023-08-30T00:24:17;11.15;;;10.07;;
43297;SDS011;28892;55.640;37.532;2023-08-30T00:26:43;11.18;;;10.18;;
43297;SDS011;28892;55.640;37.532;2023-08-30T00:29:08;11.32;;;10.23;;
43297;SDS011;28892;55.640;37.532;2023-08-30T00:31:34;11.48;;;10.35;;
43297;SDS011;28892;55.640;37.532;2023-08-30T00:34:00;11.85;;;10.65;;
43297;SDS011;28892;55.640;37.532;2023-08-30T00:36:26;12.00;;;10.13;;
43297;SDS011;28892;55.640;37.532;2023-08-30T00:38:51;10.50;;;9.50;;
43297;SDS011;28892;55.640;37.532;2023-08-30T00:41:17;10.52;;;9.50;;
43297;SDS011;28892;55.640;37.532;2023-08-30T00:43:49;10.60;;;9.18;;
43297;SDS011;28892;55.640;37.532;2023-08-30T00:46:18;12.40;;;11.18;;
43297;SDS011;28892;55.640;37.532;2023-08-30T00:48:44;12.02;;;10.85;;
43297;SDS011;28892;55.640;37.532;2023-08-30T00:51:10;12.35;;;10.98;;
43297;SDS011;28892;55.640;37.532;2023-08-30T00:53:36;13.50;;;11.00;;
43297;SDS011;28892;55.640;37.532;2023-08-30T00:56:03;12.00;;;10.80;;
43297;SDS011;28892;55.640;37.532;2023-08-30T00:58:29;12.18;;;10.82;;
43297;SDS011;28892;55.640;37.532;2023-08-30T01:00:55;11.77;;;10.57;;
43297;SDS011;28892;55.640;37.532;2023-08-30T01:03:21;12.55;;;11.20;;
43297;SDS011;28892;55.640;37.532;2023-08-30T01:05:47;12.80;;;11.35;;
43297;SDS011;28892;55.640;37.532;2023-08-30T01:08:13;11.77;;;10.52;;
43297;SDS011;28892;55.640;37.532;2023-08-30T01:13:19;13.65;;;11.90;;
43297;SDS011;28892;55.640;37.532;2023-08-30T01:15:47;13.88;;;12.00;;
43297;SDS011;28892;55.640;37.532;2023-08-30T01:18:15;17.27;;;12.10;;
43297;SDS011;28892;55.640;37.532;2023-08-30T01:20:48;14.68;;;11.55;;
43297;SDS011;28892;55.640;37.532;2023-08-30T01:23:20;12.52;;;11.20;;
43297;SDS011;28892;55.640;37.532;2023-08-30T01:28:36;14.73;;;11.93;;
43297;SDS011;28892;55.640;37.532;2023-08-30T01:31:06;13.55;;;11.90;;
43297;SDS011;28892;55.640;37.532;2023-08-30T01:33:44;13.23;;;11.43;;
43297;SDS011;28892;55.640;37.532;2023-08-30T01:36:11;13.35;;;11.15;;
43297;SDS011;28892;55.640;37.532;2023-08-30T01:38:38;12.52;;;11.13;;
43297;SDS011;28892;55.640;37.532;2023-08-30T01:41:08;12.23;;;10.80;;
43297;SDS011;28892;55.640;37.532;2023-08-30T01:43:39;12.38;;;10.60;;
43297;SDS011;28892;55.640;37.532;2023-08-30T01:46:06;12.55;;;10.73;;
43297;SDS011;28892;55.640;37.532;2023-08-30T01:48:33;13.90;;;12.00;;
43297;SDS011;28892;55.640;37.532;2023-08-30T01:51:04;13.45;;;10.80;;
43297;SDS011;28892;55.640;37.532;2023-08-30T01:53:35;12.13;;;10.93;;
43297;SDS011;28892;55.640;37.532;2023-08-30T01:56:01;12.43;;;10.60;;
43297;SDS011;28892;55.640;37.532;2023-08-30T01:58:28;12.52;;;11.23;;
43297;SDS011;28892;55.640;37.532;2023-08-30T02:01:00;11.83;;;10.47;;
43297;SDS011;28892;55.640;37.532;2023-08-30T02:03:28;12.70;;;11.40;;
43297;SDS011;28892;55.640;37.532;2023-08-30T02:06:00;12.70;;;10.93;;
43297;SDS011;28892;55.640;37.532;2023-08-30T02:08:43;12.75;;;11.40;;
43297;SDS011;28892;55.640;37.532;2023-08-30T02:11:26;12.85;;;11.52;;
43297;SDS011;28892;55.640;37.532;2023-08-30T02:13:54;12.93;;;11.10;;
43297;SDS011;28892;55.640;37.532;2023-08-30T02:16:27;14.00;;;10.98;;
43297;SDS011;28892;55.640;37.532;2023-08-30T02:18:56;14.38;;;12.88;;
43297;SDS011;28892;55.640;37.532;2023-08-30T02:21:23;12.38;;;10.88;;
43297;SDS011;28892;55.640;37.532;2023-08-30T02:23:50;12.48;;;10.68;;
43297;SDS011;28892;55.640;37.532;2023-08-30T02:26:19;13.23;;;11.93;;
43297;SDS011;28892;55.640;37.532;2023-08-30T02:28:47;14.85;;;12.77;;
43297;SDS011;28892;55.640;37.532;2023-08-30T02:31:12;14.45;;;13.05;;
43297;SDS011;28892;55.640;37.532;2023-08-30T02:33:41;15.13;;;13.65;;
43297;SDS011;28892;55.640;37.532;2023-08-30T02:36:07;14.05;;;12.55;;
43297;SDS011;28892;55.640;37.532;2023-08-30T02:38:36;14.95;;;13.40;;
43297;SDS011;28892;55.640;37.532;2023-08-30T02:41:04;16.27;;;14.63;;
43297;SDS011;28892;55.640;37.532;2023-08-30T02:43:33;16.65;;;14.88;;
43297;SDS011;28892;55.640;37.532;2023-08-30T02:45:59;17.05;;;15.02;;
43297;SDS011;28892;55.640;37.532;2023-08-30T02:48:26;16.45;;;14.65;;
43297;SDS011;28892;55.640;37.532;2023-08-30T02:50:52;17.00;;;14.80;;
43297;SDS011;28892;55.640;37.532;2023-08-30T02:53:21;17.80;;;15.93;;
43297;SDS011;28892;55.640;37.532;2023-08-30T02:55:49;17.58;;;15.77;;
43297;SDS011;28892;55.640;37.532;2023-08-30T02:58:15;17.23;;;15.52;;
43297;SDS011;28892;55.640;37.532;2023-08-30T03:00:41;17.23;;;15.52;;
43297;SDS011;28892;55.640;37.532;2023-08-30T03:03:08;17.52;;;15.73;;
43297;SDS011;28892;55.640;37.532;2023-08-30T03:05:34;17.70;;;15.88;;
43297;SDS011;28892;55.640;37.532;2023-08-30T03:08:03;18.17;;;16.35;;
43297;SDS011;28892;55.640;37.532;2023-08-30T03:10:29;17.63;;;15.82;;
43297;SDS011;28892;55.640;37.532;2023-08-30T03:12:55;17.48;;;15.77;;
43297;SDS011;28892;55.640;37.532;2023-08-30T03:15:21;18.30;;;16.60;;
43297;SDS011;28892;55.640;37.532;2023-08-30T03:17:47;17.92;;;16.02;;
43297;SDS011;28892;55.640;37.532;2023-08-30T03:20:13;18.38;;;16.50;;
43297;SDS011;28892;55.640;37.532;2023-08-30T03:22:39;18.00;;;16.23;;
43297;SDS011;28892;55.640;37.532;2023-08-30T03:25:07;18.65;;;16.85;;
43297;SDS011;28892;55.640;37.532;2023-08-30T03:27:35;17.67;;;15.98;;
43297;SDS011;28892;55.640;37.532;2023-08-30T03:30:05;17.65;;;15.90;;
43297;SDS011;28892;55.640;37.532;2023-08-30T03:32:33;14.98;;;13.57;;
43297;SDS011;28892;55.640;37.532;2023-08-30T03:35:02;12.50;;;11.40;;
43297;SDS011;28892;55.640;37.532;2023-08-30T03:37:32;13.70;;;12.40;;
43297;SDS011;28892;55.640;37.532;2023-08-30T03:39:58;14.00;;;12.70;;
43297;SDS011;28892;55.640;37.532;2023-08-30T03:42:26;15.63;;;14.13;;
43297;SDS011;28892;55.640;37.532;2023-08-30T03:44:52;15.80;;;14.20;;
43297;SDS011;28892;55.640;37.532;2023-08-30T03:47:18;15.20;;;13.70;;
43297;SDS011;28892;55.640;37.532;2023-08-30T03:49:44;15.23;;;13.73;;
43297;SDS011;28892;55.640;37.532;2023-08-30T03:52:09;14.60;;;13.20;;
43297;SDS011;28892;55.640;37.532;2023-08-30T03:54:35;14.23;;;12.88;;
43297;SDS011;28892;55.640;37.532;2023-08-30T03:57:01;17.02;;;15.32;;
43297;SDS011;28892;55.640;37.532;2023-08-30T03:59:28;16.67;;;14.85;;
43297;SDS011;28892;55.640;37.532;2023-08-30T04:01:54;16.90;;;15.10;;
43297;SDS011;28892;55.640;37.532;2023-08-30T04:04:20;16.65;;;14.95;;
43297;SDS011;28892;55.640;37.532;2023-08-30T04:06:47;17.23;;;15.45;;
43297;SDS011;28892;55.640;37.532;2023-08-30T04:09:21;16.52;;;14.82;;
43297;SDS011;28892;55.640;37.532;2023-08-30T04:11:47;17.17;;;15.40;;
43297;SDS011;28892;55.640;37.532;2023-08-30T04:14:14;17.60;;;15.80;;
43297;SDS011;28892;55.640;37.532;2023-08-30T04:16:41;18.20;;;16.30;;
43297;SDS011;28892;55.640;37.532;2023-08-30T04:19:10;16.98;;;15.27;;
43297;SDS011;28892;55.640;37.532;2023-08-30T04:21:35;18.70;;;16.77;;
43297;SDS011;28892;55.640;37.532;2023-08-30T04:24:01;17.70;;;16.00;;
43297;SDS011;28892;55.640;37.532;2023-08-30T04:26:27;16.42;;;14.73;;
43297;SDS011;28892;55.640;37.532;2023-08-30T04:28:56;17.25;;;15.43;;
43297;SDS011;28892;55.640;37.532;2023-08-30T04:31:22;16.45;;;14.75;;
43297;SDS011;28892;55.640;37.532;2023-08-30T04:33:48;17.23;;;15.52;;
43297;SDS011;28892;55.640;37.532;2023-08-30T04:36:13;16.50;;;14.90;;
43297;SDS011;28892;55.640;37.532;2023-08-30T04:38:39;16.25;;;14.65;;
43297;SDS011;28892;55.640;37.532;2023-08-30T04:41:05;16.65;;;14.95;;
43297;SDS011;28892;55.640;37.532;2023-08-30T04:43:55;16.65;;;14.98;;
43297;SDS011;28892;55.640;37.532;2023-08-30T04:46:20;17.27;;;15.20;;
43297;SDS011;28892;55.640;37.532;2023-08-30T04:48:46;16.33;;;14.00;;
43297;SDS011;28892;55.640;37.532;2023-08-30T04:51:13;14.90;;;13.48;;
43297;SDS011;28892;55.640;37.532;2023-08-30T04:53:39;15.05;;;13.25;;
43297;SDS011;28892;55.640;37.532;2023-08-30T04:56:13;15.07;;;13.45;;
43297;SDS011;28892;55.640;37.532;2023-08-30T05:01:07;15.55;;;13.60;;
43297;SDS011;28892;55.640;37.532;2023-08-30T05:03:43;13.98;;;12.60;;
43297;SDS011;28892;55.640;37.532;2023-08-30T05:06:11;12.13;;;9.80;;
43297;SDS011;28892;55.640;37.532;2023-08-30T05:08:41;10.13;;;9.13;;
43297;SDS011;28892;55.640;37.532;2023-08-30T05:11:07;9.98;;;8.40;;
43297;SDS011;28892;55.640;37.532;2023-08-30T05:13:36;9.68;;;8.23;;
43297;SDS011;28892;55.640;37.532;2023-08-30T05:16:02;9.75;;;7.80;;
43297;SDS011;28892;55.640;37.532;2023-08-30T05:18:28;8.35;;;7.53;;
43297;SDS011;28892;55.640;37.532;2023-08-30T05:20:54;8.65;;;6.68;;
43297;SDS011;28892;55.640;37.532;2023-08-30T05:23:20;10.45;;;7.95;;
43297;SDS011;28892;55.640;37.532;2023-08-30T05:25:47;7.35;;;6.65;;
43297;SDS011;28892;55.640;37.532;2023-08-30T05:31:15;6.80;;;6.03;;
43297;SDS011;28892;55.640;37.532;2023-08-30T05:33:59;6.72;;;6.13;;
43297;SDS011;28892;55.640;37.532;2023-08-30T05:36:39;6.88;;;6.18;;
43297;SDS011;28892;55.640;37.532;2023-08-30T05:39:21;6.60;;;5.88;;
43297;SDS011;28892;55.640;37.532;2023-08-30T05:41:53;6.45;;;5.85;;
43297;SDS011;28892;55.640;37.532;2023-08-30T05:44:22;7.18;;;6.20;;
43297;SDS011;28892;55.640;37.532;2023-08-30T05:46:48;8.05;;;6.28;;
43297;SDS011;28892;55.640;37.532;2023-08-30T05:49:15;7.45;;;5.15;;
43297;SDS011;28892;55.640;37.532;2023-08-30T05:51:41;6.97;;;6.03;;
43297;SDS011;28892;55.640;37.532;2023-08-30T05:54:07;5.82;;;5.30;;
43297;SDS011;28892;55.640;37.532;2023-08-30T05:56:35;6.30;;;5.70;;
43297;SDS011;28892;55.640;37.532;2023-08-30T05:59:01;7.35;;;6.07;;
43297;SDS011;28892;55.640;37.532;2023-08-30T06:01:27;6.38;;;5.78;;
43297;SDS011;28892;55.640;37.532;2023-08-30T06:03:53;7.13;;;6.15;;
43297;SDS011;28892;55.640;37.532;2023-08-30T06:06:20;6.82;;;5.85;;
43297;SDS011;28892;55.640;37.532;2023-08-30T06:08:46;8.00;;;6.20;;
43297;SDS011;28892;55.640;37.532;2023-08-30T06:11:12;6.35;;;5.63;;
43297;SDS011;28892;55.640;37.532;2023-08-30T06:13:39;9.00;;;5.53;;
43297;SDS011;28892;55.640;37.532;2023-08-30T06:16:05;7.93;;;5.75;;
43297;SDS011;28892;55.640;37.532;2023-08-30T06:18:31;9.35;;;6.05;;
43297;SDS011;28892;55.640;37.532;2023-08-30T06:20:58;7.25;;;6.55;;
43297;SDS011;28892;55.640;37.532;2023-08-30T06:23:24;8.85;;;6.35;;
43297;SDS011;28892;55.640;37.532;2023-08-30T06:25:53;8.55;;;7.25;;
43297;SDS011;28892;55.640;37.532;2023-08-30T06:28:23;10.20;;;7.03;;
43297;SDS011;28892;55.640;37.532;2023-08-30T06:30:51;10.20;;;7.05;;
43297;SDS011;28892;55.640;37.532;2023-08-30T06:33:23;8.40;;;6.10;;
43297;SDS011;28892;55.640;37.532;2023-08-30T06:39:06;5.88;;;5.25;;
43297;SDS011;28892;55.640;37.532;2023-08-30T06:41:38;6.28;;;5.45;;
43297;SDS011;28892;55.640;37.532;2023-08-30T06:44:03;6.93;;;5.60;;
43297;SDS011;28892;55.640;37.532;2023-08-30T06:46:32;6.90;;;5.55;;
43297;SDS011;28892;55.640;37.532;2023-08-30T06:48:58;6.95;;;5.90;;
43297;SDS011;28892;55.640;37.532;2023-08-30T06:51:30;7.50;;;6.15;;
43297;SDS011;28892;55.640;37.532;2023-08-30T06:54:32;6.88;;;5.53;;
43297;SDS011;28892;55.640;37.532;2023-08-30T06:57:00;9.05;;;5.90;;
43297;SDS011;28892;55.640;37.532;2023-08-30T06:59:26;6.43;;;5.43;;
43297;SDS011;28892;55.640;37.532;2023-08-30T07:01:55;5.20;;;4.70;;
43297;SDS011;28892;55.640;37.532;2023-08-30T07:04:21;5.95;;;5.10;;
43297;SDS011;28892;55.640;37.532;2023-08-30T07:06:47;8.15;;;5.18;;
43297;SDS011;28892;55.640;37.532;2023-08-30T07:09:13;7.00;;;4.93;;
43297;SDS011;28892;55.640;37.532;2023-08-30T07:11:41;7.35;;;5.47;;
43297;SDS011;28892;55.640;37.532;2023-08-30T07:14:09;8.48;;;5.35;;
43297;SDS011;28892;55.640;37.532;2023-08-30T07:16:35;9.20;;;5.68;;
43297;SDS011;28892;55.640;37.532;2023-08-30T07:19:07;8.43;;;6.03;;
43297;SDS011;28892;55.640;37.532;2023-08-30T07:21:36;6.75;;;5.53;;
43297;SDS011;28892;55.640;37.532;2023-08-30T07:24:05;9.85;;;5.07;;
43297;SDS011;28892;55.640;37.532;2023-08-30T07:29:04;7.45;;;4.80;;
43297;SDS011;28892;55.640;37.532;2023-08-30T07:31:33;5.93;;;5.32;;
43297;SDS011;28892;55.640;37.532;2023-08-30T07:33:59;7.97;;;5.10;;
43297;SDS011;28892;55.640;37.532;2023-08-30T07:36:31;6.80;;;5.40;;
43297;SDS011;28892;55.640;37.532;2023-08-30T07:38:58;10.07;;;5.80;;
43297;SDS011;28892;55.640;37.532;2023-08-30T07:41:27;7.28;;;5.18;;
43297;SDS011;28892;55.640;37.532;2023-08-30T07:43:53;8.50;;;5.50;;
43297;SDS011;28892;55.640;37.532;2023-08-30T07:46:19;12.20;;;6.35;;
43297;SDS011;28892;55.640;37.532;2023-08-30T07:48:52;6.05;;;5.43;;
43297;SDS011;28892;55.640;37.532;2023-08-30T07:51:25;7.05;;;5.82;;
43297;SDS011;28892;55.640;37.532;2023-08-30T07:53:59;9.68;;;5.68;;
43297;SDS011;28892;55.640;37.532;2023-08-30T07:56:35;5.82;;;5.15;;
43297;SDS011;28892;55.640;37.532;2023-08-30T07:59:40;6.97;;;5.45;;
43297;SDS011;28892;55.640;37.532;2023-08-30T08:03:20;8.65;;;5.63;;
43297;SDS011;28892;55.640;37.532;2023-08-30T08:05:50;7.20;;;6.18;;
43297;SDS011;28892;55.640;37.532;2023-08-30T08:08:23;8.52;;;6.15;;
43297;SDS011;28892;55.640;37.532;2023-08-30T08:10:56;6.70;;;5.15;;
43297;SDS011;28892;55.640;37.532;2023-08-30T08:13:25;8.18;;;6.00;;
43297;SDS011;28892;55.640;37.532;2023-08-30T08:15:51;7.03;;;5.70;;
43297;SDS011;28892;55.640;37.532;2023-08-30T08:18:17;7.53;;;5.25;;
43297;SDS011;28892;55.640;37.532;2023-08-30T08:20:44;8.63;;;6.70;;
43297;SDS011;28892;55.640;37.532;2023-08-30T08:23:09;7.85;;;6.22;;
43297;SDS011;28892;55.640;37.532;2023-08-30T08:25:35;13.15;;;11.43;;
43297;SDS011;28892;55.640;37.532;2023-08-30T08:28:01;11.65;;;10.48;;
43297;SDS011;28892;55.640;37.532;2023-08-30T08:30:29;9.05;;;8.18;;
43297;SDS011;28892;55.640;37.532;2023-08-30T08:33:08;10.23;;;7.57;;
43297;SDS011;28892;55.640;37.532;2023-08-30T12:06:11;6.22;;;5.63;;
43297;SDS011;28892;55.640;37.532;2023-08-30T12:08:43;9.93;;;5.90;;
43297;SDS011;28892;55.640;37.532;2023-08-30T12:11:34;11.52;;;5.93;;
43297;SDS011;28892;55.640;37.532;2023-08-30T12:14:03;7.55;;;5.72;;
43297;SDS011;28892;55.640;37.532;2023-08-30T12:16:32;7.00;;;5.43;;
43297;SDS011;28892;55.640;37.532;2023-08-30T12:19:34;8.07;;;5.80;;
43297;SDS011;28892;55.640;37.532;2023-08-30T12:22:09;8.05;;;5.55;;
43297;SDS011;28892;55.640;37.532;2023-08-30T12:24:45;9.98;;;5.38;;
43297;SDS011;28892;55.640;37.532;2023-08-30T12:27:44;7.63;;;5.20;;
43297;SDS011;28892;55.640;37.532;2023-08-30T12:30:20;8.15;;;5.47;;
43297;SDS011;28892;55.640;37.532;2023-08-30T12:32:59;6.63;;;4.75;;
43297;SDS011;28892;55.640;37.532;2023-08-30T12:35:28;7.68;;;5.25;;
43297;SDS011;28892;55.640;37.532;2023-08-30T12:38:05;7.40;;;5.18;;
43297;SDS011;28892;55.640;37.532;2023-08-30T12:43:04;8.98;;;5.22;;
43297;SDS011;28892;55.640;37.532;2023-08-30T12:45:30;7.70;;;5.43;;
43297;SDS011;28892;55.640;37.532;2023-08-30T12:47:56;9.25;;;5.78;;
43297;SDS011;28892;55.640;37.532;2023-08-30T12:50:24;8.02;;;5.95;;
43297;SDS011;28892;55.640;37.532;2023-08-30T12:52:50;6.70;;;5.53;;
43297;SDS011;28892;55.640;37.532;2023-08-30T12:55:19;8.52;;;5.88;;
43297;SDS011;28892;55.640;37.532;2023-08-30T12:57:44;10.05;;;6.85;;
43297;SDS011;28892;55.640;37.532;2023-08-30T13:00:12;9.40;;;6.60;;
43297;SDS011;28892;55.640;37.532;2023-08-30T13:02:38;11.23;;;6.97;;
43297;SDS011;28892;55.640;37.532;2023-08-30T13:05:05;7.90;;;6.53;;
43297;SDS011;28892;55.640;37.532;2023-08-30T13:07:31;8.35;;;6.28;;
43297;SDS011;28892;55.640;37.532;2023-08-30T13:09:57;8.50;;;6.22;;
43297;SDS011;28892;55.640;37.532;2023-08-30T13:12:23;12.38;;;6.72;;
43297;SDS011;28892;55.640;37.532;2023-08-30T13:14:49;7.10;;;6.15;;
43297;SDS011;28892;55.640;37.532;2023-08-30T13:17:15;11.45;;;6.90;;
43297;SDS011;28892;55.640;37.532;2023-08-30T13:20:18;10.13;;;5.63;;
43297;SDS011;28892;55.640;37.532;2023-08-30T13:22:45;11.52;;;6.35;;
43297;SDS011;28892;55.640;37.532;2023-08-30T13:25:18;6.28;;;5.00;;
43297;SDS011;28892;55.640;37.532;2023-08-30T13:27:45;6.15;;;5.40;;
43297;SDS011;28892;55.640;37.532;2023-08-30T13:30:20;7.43;;;5.38;;
43297;SDS011;28892;55.640;37.532;2023-08-30T13:32:56;7.82;;;4.85;;
43297;SDS011;28892;55.640;37.532;2023-08-30T13:35:24;8.02;;;5.60;;
43297;SDS011;28892;55.640;37.532;2023-08-30T13:37:56;10.50;;;6.20;;
43297;SDS011;28892;55.640;37.532;2023-08-30T13:40:22;8.30;;;6.38;;
43297;SDS011;28892;55.640;37.532;2023-08-30T13:42:53;9.93;;;5.25;;
43297;SDS011;28892;55.640;37.532;2023-08-30T13:45:22;8.25;;;4.43;;
43297;SDS011;28892;55.640;37.532;2023-08-30T13:47:50;6.90;;;4.15;;
43297;SDS011;28892;55.640;37.532;2023-08-30T13:50:18;8.60;;;4.60;;
43297;SDS011;28892;55.640;37.532;2023-08-30T13:52:47;7.85;;;4.80;;
43297;SDS011;28892;55.640;37.532;2023-08-30T13:55:13;6.55;;;4.35;;
43297;SDS011;28892;55.640;37.532;2023-08-30T13:57:38;6.63;;;4.20;;
43297;SDS011;28892;55.640;37.532;2023-08-30T14:00:04;8.52;;;4.18;;
43297;SDS011;28892;55.640;37.532;2023-08-30T14:02:35;6.35;;;4.20;;
43297;SDS011;28892;55.640;37.532;2023-08-30T14:05:02;6.40;;;4.20;;
43297;SDS011;28892;55.640;37.532;2023-08-30T14:07:30;7.85;;;4.30;;
43297;SDS011;28892;55.640;37.532;2023-08-30T14:09:56;7.40;;;4.10;;
43297;SDS011;28892;55.640;37.532;2023-08-30T14:12:34;6.78;;;4.18;;
43297;SDS011;28892;55.640;37.532;2023-08-30T14:15:02;8.80;;;4.15;;
43297;SDS011;28892;55.640;37.532;2023-08-30T14:17:30;10.57;;;4.60;;
43297;SDS011;28892;55.640;37.532;2023-08-30T14:19:55;7.90;;;4.38;;
43297;SDS011;28892;55.640;37.532;2023-08-30T14:22:21;9.88;;;4.95;;
43297;SDS011;28892;55.640;37.532;2023-08-30T14:24:52;7.05;;;5.13;;
43297;SDS011;28892;55.640;37.532;2023-08-30T14:27:18;10.70;;;4.25;;
43297;SDS011;28892;55.640;37.532;2023-08-30T14:30:01;8.38;;;4.43;;
43297;SDS011;28892;55.640;37.532;2023-08-30T14:32:30;8.02;;;4.30;;
43297;SDS011;28892;55.640;37.532;2023-08-30T14:34:56;8.75;;;4.32;;
43297;SDS011;28892;55.640;37.532;2023-08-30T14:37:22;9.52;;;4.63;;
43297;SDS011;28892;55.640;37.532;2023-08-30T14:39:48;6.78;;;3.53;;
43297;SDS011;28892;55.640;37.532;2023-08-30T14:42:16;6.97;;;3.85;;
43297;SDS011;28892;55.640;37.532;2023-08-30T14:44:42;6.35;;;3.75;;
43297;SDS011;28892;55.640;37.532;2023-08-30T14:47:08;5.15;;;3.40;;
43297;SDS011;28892;55.640;37.532;2023-08-30T14:49:34;7.95;;;4.25;;
43297;SDS011;28892;55.640;37.532;2023-08-30T14:52:00;5.60;;;3.90;;
43297;SDS011;28892;55.640;37.532;2023-08-30T14:54:26;6.50;;;4.18;;
43297;SDS011;28892;55.640;37.532;2023-08-30T15:01:17;8.15;;;4.18;;
43297;SDS011;28892;55.640;37.532;2023-08-30T15:03:45;7.10;;;4.72;;
43297;SDS011;28892;55.640;37.532;2023-08-30T15:10:07;9.25;;;5.53;;
43297;SDS011;28892;55.640;37.532;2023-08-30T15:13:17;6.88;;;5.22;;
43297;SDS011;28892;55.640;37.532;2023-08-30T15:15:52;7.60;;;5.60;;
43297;SDS011;28892;55.640;37.532;2023-08-30T15:18:53;10.10;;;5.80;;
43297;SDS011;28892;55.640;37.532;2023-08-30T15:21:18;8.65;;;5.97;;
43297;SDS011;28892;55.640;37.532;2023-08-30T15:23:44;7.38;;;4.90;;
43297;SDS011;28892;55.640;37.532;2023-08-30T15:26:10;8.75;;;4.88;;
43297;SDS011;28892;55.640;37.532;2023-08-30T15:28:41;9.60;;;5.43;;
43297;SDS011;28892;55.640;37.532;2023-08-30T15:31:09;7.97;;;5.40;;
43297;SDS011;28892;55.640;37.532;2023-08-30T15:33:35;8.77;;;5.30;;
43297;SDS011;28892;55.640;37.532;2023-08-30T15:36:00;10.23;;;5.07;;
43297;SDS011;28892;55.640;37.532;2023-08-30T15:38:45;7.07;;;5.50;;
43297;SDS011;28892;55.640;37.532;2023-08-30T15:41:20;10.77;;;6.32;;
43297;SDS011;28892;55.640;37.532;2023-08-30T15:44:13;7.72;;;5.30;;
43297;SDS011;28892;55.640;37.532;2023-08-30T15:46:53;8.80;;;5.10;;
43297;SDS011;28892;55.640;37.532;2023-08-30T15:49:25;8.18;;;4.85;;
43297;SDS011;28892;55.640;37.532;2023-08-30T15:52:00;9.48;;;5.38;;
43297;SDS011;28892;55.640;37.532;2023-08-30T15:54:43;11.88;;;6.32;;
43297;SDS011;28892;55.640;37.532;2023-08-30T16:00:35;8.25;;;5.45;;
43297;SDS011;28892;55.640;37.532;2023-08-30T16:03:06;11.55;;;6.35;;
43297;SDS011;28892;55.640;37.532;2023-08-30T16:05:45;9.25;;;5.57;;
43297;SDS011;28892;55.640;37.532;2023-08-30T16:21:44;7.03;;;5.07;;
43297;SDS011;28892;55.640;37.532;2023-08-30T16:25:04;7.85;;;4.80;;
43297;SDS011;28892;55.640;37.532;2023-08-30T16:28:39;8.27;;;5.00;;
43297;SDS011;28892;55.640;37.532;2023-08-30T16:41:00;15.70;;;4.78;;
43297;SDS011;28892;55.640;37.532;2023-08-30T16:48:12;7.72;;;4.65;;
43297;SDS011;28892;55.640;37.532;2023-08-30T17:27:09;8.95;;;4.85;;
43297;SDS011;28892;55.640;37.532;2023-08-30T17:30:09;13.27;;;5.00;;
43297;SDS011;28892;55.640;37.532;2023-08-30T17:33:03;8.00;;;5.03;;
43297;SDS011;28892;55.640;37.532;2023-08-30T17:36:44;6.50;;;5.13;;
43297;SDS011;28892;55.640;37.532;2023-08-30T18:03:25;9.88;;;6.30;;
43297;SDS011;28892;55.640;37.532;2023-08-30T18:06:00;8.13;;;5.53;;
43297;SDS011;28892;55.640;37.532;2023-08-30T18:08:32;10.45;;;5.75;;
43297;SDS011;28892;55.640;37.532;2023-08-30T18:11:18;8.65;;;5.95;;
43297;SDS011;28892;55.640;37.532;2023-08-30T18:13:53;8.60;;;5.30;;
43297;SDS011;28892;55.640;37.532;2023-08-30T18:16:19;8.93;;;6.07;;
43297;SDS011;28892;55.640;37.532;2023-08-30T18:18:51;10.90;;;5.22;;
43297;SDS011;28892;55.640;37.532;2023-08-30T18:24:30;7.30;;;4.85;;
43297;SDS011;28892;55.640;37.532;2023-08-30T18:34:41;13.13;;;5.93;;
43297;SDS011;28892;55.640;37.532;2023-08-30T18:38:17;7.25;;;5.43;;
43297;SDS011;28892;55.640;37.532;2023-08-30T18:45:23;8.48;;;5.68;;
43297;SDS011;28892;55.640;37.532;2023-08-30T18:49:08;10.50;;;5.70;;
43297;SDS011;28892;55.640;37.532;2023-08-30T18:56:09;7.72;;;5.00;;
43297;SDS011;28892;55.640;37.532;2023-08-30T18:59:21;7.95;;;5.47;;
43297;SDS011;28892;55.640;37.532;2023-08-30T19:01:56;10.90;;;5.68;;
43297;SDS011;28892;55.640;37.532;2023-08-30T19:04:22;12.35;;;6.32;;
43297;SDS011;28892;55.640;37.532;2023-08-30T19:06:53;9.05;;;5.13;;
43297;SDS011;28892;55.640;37.532;2023-08-30T19:09:55;8.40;;;5.57;;
43297;SDS011;28892;55.640;37.532;2023-08-30T19:12:36;9.40;;;5.78;;
43297;SDS011;28892;55.640;37.532;2023-08-30T19:15:04;9.88;;;5.80;;
43297;SDS011;28892;55.640;37.532;2023-08-30T19:17:48;13.32;;;7.00;;
43297;SDS011;28892;55.640;37.532;2023-08-30T19:20:20;8.90;;;5.53;;
43297;SDS011;28892;55.640;37.532;2023-08-30T19:22:46;7.20;;;4.68;;
43297;SDS011;28892;55.640;37.532;2023-08-30T19:25:18;6.18;;;5.53;;
43297;SDS011;28892;55.640;37.532;2023-08-30T19:27:45;7.85;;;5.78;;
43297;SDS011;28892;55.640;37.532;2023-08-30T19:30:11;8.43;;;5.80;;
43297;SDS011;28892;55.640;37.532;2023-08-30T19:32:38;10.48;;;5.45;;
43297;SDS011;28892;55.640;37.532;2023-08-30T19:35:04;7.53;;;5.68;;
43297;SDS011;28892;55.640;37.532;2023-08-30T19:37:32;10.38;;;5.32;;
43297;SDS011;28892;55.640;37.532;2023-08-30T19:40:12;7.80;;;5.15;;
43297;SDS011;28892;55.640;37.532;2023-08-30T19:42:41;10.38;;;5.63;;
43297;SDS011;28892;55.640;37.532;2023-08-30T19:45:09;9.18;;;5.20;;
43297;SDS011;28892;55.640;37.532;2023-08-30T19:47:36;8.30;;;5.50;;
43297;SDS011;28892;55.640;37.532;2023-08-30T19:50:02;7.28;;;5.05;;
43297;SDS011;28892;55.640;37.532;2023-08-30T19:52:29;6.63;;;5.30;;
43297;SDS011;28892;55.640;37.532;2023-08-30T19:54:55;8.30;;;5.03;;
43297;SDS011;28892;55.640;37.532;2023-08-30T19:57:24;10.07;;;5.47;;
43297;SDS011;28892;55.640;37.532;2023-08-30T19:59:51;9.00;;;4.93;;
43297;SDS011;28892;55.640;37.532;2023-08-30T20:02:26;5.80;;;4.43;;
43297;SDS011;28892;55.640;37.532;2023-08-30T20:05:21;7.93;;;4.97;;
43297;SDS011;28892;55.640;37.532;2023-08-30T20:08:03;6.85;;;4.72;;
43297;SDS011;28892;55.640;37.532;2023-08-30T20:10:29;7.85;;;5.20;;
43297;SDS011;28892;55.640;37.532;2023-08-30T20:12:55;7.63;;;4.53;;
43297;SDS011;28892;55.640;37.532;2023-08-30T20:15:21;9.25;;;5.18;;
43297;SDS011;28892;55.640;37.532;2023-08-30T20:17:48;8.57;;;5.10;;
43297;SDS011;28892;55.640;37.532;2023-08-30T20:20:13;7.60;;;5.50;;
43297;SDS011;28892;55.640;37.532;2023-08-30T20:22:39;9.23;;;5.50;;
43297;SDS011;28892;55.640;37.532;2023-08-30T20:25:09;11.80;;;5.82;;
43297;SDS011;28892;55.640;37.532;2023-08-30T20:27:36;8.95;;;5.70;;
43297;SDS011;28892;55.640;37.532;2023-08-30T20:30:05;11.07;;;5.65;;
43297;SDS011;28892;55.640;37.532;2023-08-30T20:32:38;8.07;;;5.53;;
43297;SDS011;28892;55.640;37.532;2023-08-30T20:35:04;11.27;;;5.45;;
43297;SDS011;28892;55.640;37.532;2023-08-30T20:37:30;8.63;;;5.13;;